sensor_id;sensor_type;location;lat;lon;timestamp;temperature;humidity
58519;DHT22;44310;48.106;12.008;2023-03-01T00:01:17;14.60;77.00
58519;DHT22;44310;48.106;12.008;2023-03-01T00:03:45;14.60;77.20
58519;DHT22;44310;48.106;12.008;2023-03-01T00:06:12;14.90;77.60
58519;DHT22;44310;48.106;12.008;2023-03-01T00:08:40;14.90;77.10
58519;DHT22;44310;48.106;12.008;2023-03-01T00:11:19;14.60;76.70
58519;DHT22;44310;48.106;12.008;2023-03-01T00:13:49;14.80;76.60
58519;DHT22;44310;48.106;12.008;2023-03-01T00:16:22;14.80;76.50
58519;DHT22;44310;48.106;12.008;2023-03-01T00:18:49;14.80;76.40
58519;DHT22;44310;48.106;12.008;2023-03-01T00:21:17;14.80;76.30
58519;DHT22;44310;48.106;12.008;2023-03-01T00:23:46;14.80;76.30
58519;DHT22;44310;48.106;12.008;2023-03-01T00:26:16;14.80;76.20
58519;DHT22;44310;48.106;12.008;2023-03-01T00:28:44;14.70;75.90
58519;DHT22;44310;48.106;12.008;2023-03-01T00:31:14;14.80;76.00
58519;DHT22;44310;48.106;12.008;2023-03-01T00:33:42;14.70;75.80
58519;DHT22;44310;48.106;12.008;2023-03-01T00:36:10;14.90;75.80
58519;DHT22;44310;48.106;12.008;2023-03-01T00:38:43;14.80;76.30
58519;DHT22;44310;48.106;12.008;2023-03-01T00:41:13;14.50;76.60
58519;DHT22;44310;48.106;12.008;2023-03-01T00:43:41;14.90;76.60
58519;DHT22;44310;48.106;12.008;2023-03-01T00:46:14;14.90;76.50
58519;DHT22;44310;48.106;12.008;2023-03-01T00:48:42;14.90;76.60
58519;DHT22;44310;48.106;12.008;2023-03-01T00:51:11;14.80;76.50
58519;DHT22;44310;48.106;12.008;2023-03-01T00:53:38;14.90;76.50
58519;DHT22;44310;48.106;12.008;2023-03-01T00:56:08;14.90;76.60
58519;DHT22;44310;48.106;12.008;2023-03-01T00:58:35;14.90;76.60
58519;DHT22;44310;48.106;12.008;2023-03-01T01:01:12;14.90;76.90
58519;DHT22;44310;48.106;12.008;2023-03-01T01:03:49;15.20;77.40
58519;DHT22;44310;48.106;12.008;2023-03-01T01:06:19;14.90;76.80
58519;DHT22;44310;48.106;12.008;2023-03-01T01:08:47;14.90;77.00
58519;DHT22;44310;48.106;12.008;2023-03-01T01:11:15;14.80;76.80
58519;DHT22;44310;48.106;12.008;2023-03-01T01:13:44;14.70;76.40
58519;DHT22;44310;48.106;12.008;2023-03-01T01:16:13;14.80;76.20
58519;DHT22;44310;48.106;12.008;2023-03-01T01:18:40;14.70;76.10
58519;DHT22;44310;48.106;12.008;2023-03-01T01:21:13;14.80;76.00
58519;DHT22;44310;48.106;12.008;2023-03-01T01:23:42;14.70;75.90
58519;DHT22;44310;48.106;12.008;2023-03-01T01:26:12;14.70;75.90
58519;DHT22;44310;48.106;12.008;2023-03-01T01:28:40;14.70;76.20
58519;DHT22;44310;48.106;12.008;2023-03-01T01:31:07;14.70;76.10
58519;DHT22;44310;48.106;12.008;2023-03-01T01:33:34;14.40;76.40
58519;DHT22;44310;48.106;12.008;2023-03-01T01:36:02;14.70;77.20
58519;DHT22;44310;48.106;12.008;2023-03-01T01:38:29;14.80;77.40
58519;DHT22;44310;48.106;12.008;2023-03-01T01:40:57;14.90;77.30
58519;DHT22;44310;48.106;12.008;2023-03-01T01:43:33;14.80;77.10
58519;DHT22;44310;48.106;12.008;2023-03-01T01:46:24;14.90;77.00
58519;DHT22;44310;48.106;12.008;2023-03-01T01:49:41;14.90;77.10
58519;DHT22;44310;48.106;12.008;2023-03-01T01:51:47;14.80;77.10
58519;DHT22;44310;48.106;12.008;2023-03-01T01:54:43;14.80;76.90
58519;DHT22;44310;48.106;12.008;2023-03-01T01:57:11;14.80;76.90
58519;DHT22;44310;48.106;12.008;2023-03-01T01:59:41;14.80;76.90
58519;DHT22;44310;48.106;12.008;2023-03-01T02:02:09;15.40;78.00
58519;DHT22;44310;48.106;12.008;2023-03-01T02:04:37;15.00;77.00
58519;DHT22;44310;48.106;12.008;2023-03-01T02:07:19;14.90;76.80
58519;DHT22;44310;48.106;12.008;2023-03-01T02:09:50;14.90;77.30
58519;DHT22;44310;48.106;12.008;2023-03-01T02:12:21;14.80;76.80
58519;DHT22;44310;48.106;12.008;2023-03-01T02:14:49;14.80;76.70
58519;DHT22;44310;48.106;12.008;2023-03-01T02:17:18;14.90;76.80
58519;DHT22;44310;48.106;12.008;2023-03-01T02:23:02;14.80;76.40
58519;DHT22;44310;48.106;12.008;2023-03-01T02:25:47;14.80;75.90
58519;DHT22;44310;48.106;12.008;2023-03-01T02:30:48;14.80;76.30
58519;DHT22;44310;48.106;12.008;2023-03-01T02:33:53;14.30;76.20
58519;DHT22;44310;48.106;12.008;2023-03-01T02:36:26;14.80;76.50
58519;DHT22;44310;48.106;12.008;2023-03-01T02:38:58;14.70;76.40
58519;DHT22;44310;48.106;12.008;2023-03-01T02:41:28;14.80;76.50
58519;DHT22;44310;48.106;12.008;2023-03-01T02:43:57;14.80;76.00
58519;DHT22;44310;48.106;12.008;2023-03-01T02:46:26;14.80;75.80
58519;DHT22;44310;48.106;12.008;2023-03-01T02:48:56;14.70;75.60
58519;DHT22;44310;48.106;12.008;2023-03-01T02:51:52;14.70;75.40
58519;DHT22;44310;48.106;12.008;2023-03-01T02:54:24;14.70;76.00
58519;DHT22;44310;48.106;12.008;2023-03-01T02:56:52;14.70;75.20
58519;DHT22;44310;48.106;12.008;2023-03-01T02:59:22;14.70;75.10
58519;DHT22;44310;48.106;12.008;2023-03-01T03:01:51;14.70;74.90
58519;DHT22;44310;48.106;12.008;2023-03-01T03:04:19;14.60;74.70
58519;DHT22;44310;48.106;12.008;2023-03-01T03:06:50;14.70;75.30
58519;DHT22;44310;48.106;12.008;2023-03-01T03:09:18;14.70;76.30
58519;DHT22;44310;48.106;12.008;2023-03-01T03:11:45;14.70;76.50
58519;DHT22;44310;48.106;12.008;2023-03-01T03:14:14;14.80;76.50
58519;DHT22;44310;48.106;12.008;2023-03-01T03:16:47;14.80;76.30
58519;DHT22;44310;48.106;12.008;2023-03-01T03:19:16;14.80;76.10
58519;DHT22;44310;48.106;12.008;2023-03-01T03:21:44;14.80;75.90
58519;DHT22;44310;48.106;12.008;2023-03-01T03:24:11;14.70;75.90
58519;DHT22;44310;48.106;12.008;2023-03-01T03:26:38;14.80;75.80
58519;DHT22;44310;48.106;12.008;2023-03-01T03:29:05;15.50;76.00
58519;DHT22;44310;48.106;12.008;2023-03-01T03:31:33;15.00;75.60
58519;DHT22;44310;48.106;12.008;2023-03-01T03:34:00;15.40;75.80
58519;DHT22;44310;48.106;12.008;2023-03-01T03:36:28;14.80;75.50
58519;DHT22;44310;48.106;12.008;2023-03-01T03:38:55;14.80;75.40
58519;DHT22;44310;48.106;12.008;2023-03-01T03:41:22;16.10;76.00
58519;DHT22;44310;48.106;12.008;2023-03-01T03:43:49;14.80;75.20
58519;DHT22;44310;48.106;12.008;2023-03-01T03:46:16;14.00;74.80
58519;DHT22;44310;48.106;12.008;2023-03-01T03:48:44;14.80;75.00
58519;DHT22;44310;48.106;12.008;2023-03-01T03:51:14;14.80;75.60
58519;DHT22;44310;48.106;12.008;2023-03-01T03:53:42;14.30;75.30
58519;DHT22;44310;48.106;12.008;2023-03-01T03:56:10;14.80;75.20
58519;DHT22;44310;48.106;12.008;2023-03-01T03:58:37;14.80;75.20
58519;DHT22;44310;48.106;12.008;2023-03-01T04:01:05;14.80;75.40
58519;DHT22;44310;48.106;12.008;2023-03-01T04:03:33;14.90;75.50
58519;DHT22;44310;48.106;12.008;2023-03-01T04:06:02;14.80;75.80
58519;DHT22;44310;48.106;12.008;2023-03-01T04:08:29;14.80;75.80
58519;DHT22;44310;48.106;12.008;2023-03-01T04:10:59;14.80;75.70
58519;DHT22;44310;48.106;12.008;2023-03-01T04:13:27;14.80;75.80
58519;DHT22;44310;48.106;12.008;2023-03-01T04:15:54;14.80;75.50
58519;DHT22;44310;48.106;12.008;2023-03-01T04:18:23;14.70;75.30
58519;DHT22;44310;48.106;12.008;2023-03-01T04:20:53;14.80;75.40
58519;DHT22;44310;48.106;12.008;2023-03-01T04:23:22;14.80;75.40
58519;DHT22;44310;48.106;12.008;2023-03-01T04:25:57;15.30;75.40
58519;DHT22;44310;48.106;12.008;2023-03-01T04:28:36;14.70;74.90
58519;DHT22;44310;48.106;12.008;2023-03-01T04:31:09;14.70;74.80
58519;DHT22;44310;48.106;12.008;2023-03-01T04:33:53;14.70;74.80
58519;DHT22;44310;48.106;12.008;2023-03-01T04:36:23;14.70;74.80
58519;DHT22;44310;48.106;12.008;2023-03-01T04:38:51;14.70;74.60
58519;DHT22;44310;48.106;12.008;2023-03-01T04:41:21;15.20;74.80
58519;DHT22;44310;48.106;12.008;2023-03-01T04:43:48;14.70;74.60
58519;DHT22;44310;48.106;12.008;2023-03-01T04:46:18;14.40;74.40
58519;DHT22;44310;48.106;12.008;2023-03-01T04:48:47;14.60;74.30
58519;DHT22;44310;48.106;12.008;2023-03-01T04:51:14;14.70;74.20
58519;DHT22;44310;48.106;12.008;2023-03-01T04:53:42;13.90;73.60
58519;DHT22;44310;48.106;12.008;2023-03-01T04:56:10;14.60;73.90
58519;DHT22;44310;48.106;12.008;2023-03-01T04:58:37;14.60;73.40
58519;DHT22;44310;48.106;12.008;2023-03-01T05:01:14;14.60;73.60
58519;DHT22;44310;48.106;12.008;2023-03-01T05:03:46;14.70;73.80
58519;DHT22;44310;48.106;12.008;2023-03-01T05:06:15;14.60;73.40
58519;DHT22;44310;48.106;12.008;2023-03-01T05:08:42;15.20;73.70
58519;DHT22;44310;48.106;12.008;2023-03-01T05:11:10;14.70;73.60
58519;DHT22;44310;48.106;12.008;2023-03-01T05:13:38;14.80;73.80
58519;DHT22;44310;48.106;12.008;2023-03-01T05:16:07;14.70;73.90
58519;DHT22;44310;48.106;12.008;2023-03-01T05:18:39;14.70;73.60
58519;DHT22;44310;48.106;12.008;2023-03-01T05:21:11;14.90;73.50
58519;DHT22;44310;48.106;12.008;2023-03-01T05:23:39;14.60;73.30
58519;DHT22;44310;48.106;12.008;2023-03-01T05:26:07;14.60;73.20
58519;DHT22;44310;48.106;12.008;2023-03-01T05:28:52;14.60;73.20
58519;DHT22;44310;48.106;12.008;2023-03-01T05:31:19;14.60;73.10
58519;DHT22;44310;48.106;12.008;2023-03-01T05:33:46;14.60;73.10
58519;DHT22;44310;48.106;12.008;2023-03-01T05:36:13;14.70;74.30
58519;DHT22;44310;48.106;12.008;2023-03-01T05:38:40;14.70;74.60
58519;DHT22;44310;48.106;12.008;2023-03-01T05:41:14;14.30;74.50
58519;DHT22;44310;48.106;12.008;2023-03-01T05:43:41;14.50;74.60
58519;DHT22;44310;48.106;12.008;2023-03-01T05:46:10;14.80;74.70
58519;DHT22;44310;48.106;12.008;2023-03-01T05:48:39;14.80;74.70
58519;DHT22;44310;48.106;12.008;2023-03-01T05:51:06;14.80;74.80
58519;DHT22;44310;48.106;12.008;2023-03-01T05:53:33;14.80;75.20
58519;DHT22;44310;48.106;12.008;2023-03-01T05:56:03;14.40;74.90
58519;DHT22;44310;48.106;12.008;2023-03-01T05:58:30;14.80;75.00
58519;DHT22;44310;48.106;12.008;2023-03-01T06:00:57;14.80;75.10
58519;DHT22;44310;48.106;12.008;2023-03-01T06:03:25;14.90;75.40
58519;DHT22;44310;48.106;12.008;2023-03-01T06:05:57;15.10;75.60
58519;DHT22;44310;48.106;12.008;2023-03-01T06:08:26;14.90;75.30
58519;DHT22;44310;48.106;12.008;2023-03-01T06:10:54;15.30;75.50
58519;DHT22;44310;48.106;12.008;2023-03-01T06:13:22;14.80;75.00
58519;DHT22;44310;48.106;12.008;2023-03-01T06:15:50;14.80;74.80
58519;DHT22;44310;48.106;12.008;2023-03-01T06:18:17;14.80;74.50
58519;DHT22;44310;48.106;12.008;2023-03-01T06:20:44;14.80;74.60
58519;DHT22;44310;48.106;12.008;2023-03-01T06:23:11;14.80;74.20
58519;DHT22;44310;48.106;12.008;2023-03-01T06:25:38;14.80;73.70
58519;DHT22;44310;48.106;12.008;2023-03-01T06:28:05;16.20;74.40
58519;DHT22;44310;48.106;12.008;2023-03-01T06:30:33;14.80;74.30
58519;DHT22;44310;48.106;12.008;2023-03-01T06:33:00;15.20;73.60
58519;DHT22;44310;48.106;12.008;2023-03-01T06:35:30;14.80;73.20
58519;DHT22;44310;48.106;12.008;2023-03-01T06:37:59;14.50;72.90
58519;DHT22;44310;48.106;12.008;2023-03-01T06:40:27;14.80;73.00
58519;DHT22;44310;48.106;12.008;2023-03-01T06:42:54;14.80;73.10
58519;DHT22;44310;48.106;12.008;2023-03-01T06:45:21;14.80;73.00
58519;DHT22;44310;48.106;12.008;2023-03-01T06:47:49;14.80;73.00
58519;DHT22;44310;48.106;12.008;2023-03-01T06:50:17;14.80;73.10
58519;DHT22;44310;48.106;12.008;2023-03-01T06:52:44;14.80;73.00
58519;DHT22;44310;48.106;12.008;2023-03-01T06:55:13;14.80;72.70
58519;DHT22;44310;48.106;12.008;2023-03-01T06:57:40;14.80;72.60
58519;DHT22;44310;48.106;12.008;2023-03-01T07:00:08;14.80;72.90
58519;DHT22;44310;48.106;12.008;2023-03-01T07:02:35;14.80;73.00
58519;DHT22;44310;48.106;12.008;2023-03-01T07:05:03;14.80;73.00
58519;DHT22;44310;48.106;12.008;2023-03-01T07:07:30;14.80;72.90
58519;DHT22;44310;48.106;12.008;2023-03-01T07:09:57;14.80;72.90
58519;DHT22;44310;48.106;12.008;2023-03-01T07:12:24;14.80;72.70
58519;DHT22;44310;48.106;12.008;2023-03-01T07:14:51;14.80;72.60
58519;DHT22;44310;48.106;12.008;2023-03-01T07:17:18;14.80;72.60
58519;DHT22;44310;48.106;12.008;2023-03-01T07:19:45;14.80;72.70
58519;DHT22;44310;48.106;12.008;2023-03-01T07:22:12;15.30;72.90
58519;DHT22;44310;48.106;12.008;2023-03-01T07:24:41;15.00;72.80
58519;DHT22;44310;48.106;12.008;2023-03-01T07:27:08;14.80;72.50
58519;DHT22;44310;48.106;12.008;2023-03-01T07:29:36;14.80;72.40
58519;DHT22;44310;48.106;12.008;2023-03-01T07:32:06;14.80;72.40
58519;DHT22;44310;48.106;12.008;2023-03-01T07:34:33;14.80;72.20
58519;DHT22;44310;48.106;12.008;2023-03-01T07:37:00;14.80;71.90
58519;DHT22;44310;48.106;12.008;2023-03-01T07:39:27;14.80;71.80
58519;DHT22;44310;48.106;12.008;2023-03-01T07:41:54;14.80;72.20
58519;DHT22;44310;48.106;12.008;2023-03-01T07:44:22;14.80;72.00
58519;DHT22;44310;48.106;12.008;2023-03-01T07:46:49;14.80;72.10
58519;DHT22;44310;48.106;12.008;2023-03-01T07:49:16;14.80;72.20
58519;DHT22;44310;48.106;12.008;2023-03-01T07:51:43;14.80;72.60
58519;DHT22;44310;48.106;12.008;2023-03-01T07:54:11;14.80;73.00
58519;DHT22;44310;48.106;12.008;2023-03-01T07:56:38;14.80;73.20
58519;DHT22;44310;48.106;12.008;2023-03-01T07:59:05;14.90;73.50
58519;DHT22;44310;48.106;12.008;2023-03-01T08:01:32;14.80;73.30
58519;DHT22;44310;48.106;12.008;2023-03-01T08:03:59;14.80;73.40
58519;DHT22;44310;48.106;12.008;2023-03-01T08:06:27;14.80;73.60
58519;DHT22;44310;48.106;12.008;2023-03-01T08:08:54;14.80;74.00
58519;DHT22;44310;48.106;12.008;2023-03-01T08:11:22;15.30;74.60
58519;DHT22;44310;48.106;12.008;2023-03-01T08:13:50;14.80;74.50
58519;DHT22;44310;48.106;12.008;2023-03-01T08:16:20;15.10;74.70
58519;DHT22;44310;48.106;12.008;2023-03-01T08:18:47;14.80;74.70
58519;DHT22;44310;48.106;12.008;2023-03-01T08:21:16;15.10;75.20
58519;DHT22;44310;48.106;12.008;2023-03-01T08:23:44;14.80;74.60
58519;DHT22;44310;48.106;12.008;2023-03-01T08:26:17;14.80;74.30
58519;DHT22;44310;48.106;12.008;2023-03-01T08:28:46;15.60;74.90
58519;DHT22;44310;48.106;12.008;2023-03-01T08:31:25;14.80;74.40
58519;DHT22;44310;48.106;12.008;2023-03-01T08:33:55;14.80;74.30
58519;DHT22;44310;48.106;12.008;2023-03-01T08:36:27;14.80;74.30
58519;DHT22;44310;48.106;12.008;2023-03-01T08:38:56;14.80;73.90
58519;DHT22;44310;48.106;12.008;2023-03-01T08:41:23;14.90;74.00
58519;DHT22;44310;48.106;12.008;2023-03-01T08:43:50;14.70;74.20
58519;DHT22;44310;48.106;12.008;2023-03-01T08:46:18;14.70;73.50
58519;DHT22;44310;48.106;12.008;2023-03-01T08:48:45;14.40;73.20
58519;DHT22;44310;48.106;12.008;2023-03-01T08:51:13;14.70;74.00
58519;DHT22;44310;48.106;12.008;2023-03-01T08:53:42;15.00;74.50
58519;DHT22;44310;48.106;12.008;2023-03-01T08:56:10;15.40;74.70
58519;DHT22;44310;48.106;12.008;2023-03-01T08:58:37;14.80;74.50
58519;DHT22;44310;48.106;12.008;2023-03-01T09:01:11;14.80;74.60
58519;DHT22;44310;48.106;12.008;2023-03-01T09:03:39;15.70;75.30
58519;DHT22;44310;48.106;12.008;2023-03-01T09:06:07;14.80;75.10
58519;DHT22;44310;48.106;12.008;2023-03-01T09:08:36;14.80;75.30
58519;DHT22;44310;48.106;12.008;2023-03-01T09:11:05;14.80;75.40
58519;DHT22;44310;48.106;12.008;2023-03-01T09:13:33;14.80;75.40
58519;DHT22;44310;48.106;12.008;2023-03-01T09:16:02;15.20;75.60
58519;DHT22;44310;48.106;12.008;2023-03-01T09:18:30;14.80;75.20
58519;DHT22;44310;48.106;12.008;2023-03-01T09:21:02;14.80;75.10
58519;DHT22;44310;48.106;12.008;2023-03-01T09:23:38;14.70;74.50
58519;DHT22;44310;48.106;12.008;2023-03-01T09:26:07;14.80;74.50
58519;DHT22;44310;48.106;12.008;2023-03-01T09:28:36;14.80;74.40
58519;DHT22;44310;48.106;12.008;2023-03-01T09:31:04;14.80;74.30
58519;DHT22;44310;48.106;12.008;2023-03-01T09:33:32;14.80;74.40
58519;DHT22;44310;48.106;12.008;2023-03-01T09:36:03;14.80;74.60
58519;DHT22;44310;48.106;12.008;2023-03-01T09:38:31;14.80;74.70
58519;DHT22;44310;48.106;12.008;2023-03-01T09:40:59;14.80;73.00
58519;DHT22;44310;48.106;12.008;2023-03-01T09:46:09;14.20;68.30
58519;DHT22;44310;48.106;12.008;2023-03-01T09:48:50;14.10;66.60
58519;DHT22;44310;48.106;12.008;2023-03-01T09:51:27;14.00;67.70
58519;DHT22;44310;48.106;12.008;2023-03-01T09:53:56;14.00;67.80
58519;DHT22;44310;48.106;12.008;2023-03-01T09:56:33;14.10;68.40
58519;DHT22;44310;48.106;12.008;2023-03-01T10:01:56;14.20;68.10
58519;DHT22;44310;48.106;12.008;2023-03-01T10:09:43;14.50;68.50
58519;DHT22;44310;48.106;12.008;2023-03-01T10:12:25;14.40;68.80
58519;DHT22;44310;48.106;12.008;2023-03-01T10:20:19;13.80;63.30
58519;DHT22;44310;48.106;12.008;2023-03-01T10:22:47;14.10;65.50
58519;DHT22;44310;48.106;12.008;2023-03-01T10:25:44;13.80;67.20
58519;DHT22;44310;48.106;12.008;2023-03-01T10:28:20;13.80;66.00
58519;DHT22;44310;48.106;12.008;2023-03-01T10:30:47;13.70;66.40
58519;DHT22;44310;48.106;12.008;2023-03-01T10:33:21;13.60;63.40
58519;DHT22;44310;48.106;12.008;2023-03-01T10:35:50;13.60;65.40
58519;DHT22;44310;48.106;12.008;2023-03-01T10:38:18;13.70;65.40
58519;DHT22;44310;48.106;12.008;2023-03-01T10:40:55;13.80;66.30
58519;DHT22;44310;48.106;12.008;2023-03-01T10:43:47;14.00;66.80
58519;DHT22;44310;48.106;12.008;2023-03-01T10:49:21;14.20;68.40
58519;DHT22;44310;48.106;12.008;2023-03-01T10:51:50;14.30;69.00
58519;DHT22;44310;48.106;12.008;2023-03-01T10:56:56;14.50;69.60
58519;DHT22;44310;48.106;12.008;2023-03-01T10:59:32;14.50;69.80
58519;DHT22;44310;48.106;12.008;2023-03-01T11:05:15;14.60;70.40
58519;DHT22;44310;48.106;12.008;2023-03-01T11:08:00;14.70;71.00
58519;DHT22;44310;48.106;12.008;2023-03-01T11:10:29;14.70;71.20
58519;DHT22;44310;48.106;12.008;2023-03-01T11:13:13;14.70;71.30
58519;DHT22;44310;48.106;12.008;2023-03-01T11:15:43;14.70;72.20
58519;DHT22;44310;48.106;12.008;2023-03-01T11:18:23;14.70;71.80
58519;DHT22;44310;48.106;12.008;2023-03-01T11:21:03;14.80;72.00
58519;DHT22;44310;48.106;12.008;2023-03-01T11:23:33;14.80;72.40
58519;DHT22;44310;48.106;12.008;2023-03-01T11:26:04;14.80;72.60
58519;DHT22;44310;48.106;12.008;2023-03-01T11:28:33;14.90;72.80
58519;DHT22;44310;48.106;12.008;2023-03-01T11:31:09;14.90;72.60
58519;DHT22;44310;48.106;12.008;2023-03-01T11:33:53;14.90;72.50
58519;DHT22;44310;48.106;12.008;2023-03-01T11:36:52;14.90;72.50
58519;DHT22;44310;48.106;12.008;2023-03-01T11:39:27;14.90;72.90
58519;DHT22;44310;48.106;12.008;2023-03-01T11:42:06;14.80;72.70
58519;DHT22;44310;48.106;12.008;2023-03-01T11:44:47;14.90;72.50
58519;DHT22;44310;48.106;12.008;2023-03-01T11:50:07;14.90;72.60
58519;DHT22;44310;48.106;12.008;2023-03-01T11:53:13;14.80;72.70
58519;DHT22;44310;48.106;12.008;2023-03-01T11:55:58;14.90;72.90
58519;DHT22;44310;48.106;12.008;2023-03-01T11:58:37;14.90;73.10
58519;DHT22;44310;48.106;12.008;2023-03-01T12:01:23;14.90;73.20
58519;DHT22;44310;48.106;12.008;2023-03-01T12:07:03;14.90;73.00
58519;DHT22;44310;48.106;12.008;2023-03-01T12:12:25;15.20;73.20
58519;DHT22;44310;48.106;12.008;2023-03-01T12:23:13;14.90;72.90
58519;DHT22;44310;48.106;12.008;2023-03-01T12:25:57;14.90;72.90
58519;DHT22;44310;48.106;12.008;2023-03-01T12:31:39;14.90;72.50
58519;DHT22;44310;48.106;12.008;2023-03-01T12:43:01;14.90;72.90
58519;DHT22;44310;48.106;12.008;2023-03-01T12:48:40;14.90;73.00
58519;DHT22;44310;48.106;12.008;2023-03-01T12:51:10;15.00;73.10
58519;DHT22;44310;48.106;12.008;2023-03-01T12:53:50;14.90;72.90
58519;DHT22;44310;48.106;12.008;2023-03-01T12:56:22;14.90;72.90
58519;DHT22;44310;48.106;12.008;2023-03-01T12:59:14;14.90;72.70
58519;DHT22;44310;48.106;12.008;2023-03-01T13:07:34;15.20;73.60
58519;DHT22;44310;48.106;12.008;2023-03-01T13:10:20;15.00;73.40
58519;DHT22;44310;48.106;12.008;2023-03-01T13:17:57;15.00;73.10
58519;DHT22;44310;48.106;12.008;2023-03-01T13:26:11;15.00;73.10
58519;DHT22;44310;48.106;12.008;2023-03-01T13:34:02;15.00;72.90
58519;DHT22;44310;48.106;12.008;2023-03-01T13:39:04;15.10;73.20
58519;DHT22;44310;48.106;12.008;2023-03-01T13:46:59;14.60;72.30
58519;DHT22;44310;48.106;12.008;2023-03-01T13:49:41;15.10;72.50
58519;DHT22;44310;48.106;12.008;2023-03-01T13:52:35;15.10;72.40
58519;DHT22;44310;48.106;12.008;2023-03-01T13:57:44;15.30;72.60
58519;DHT22;44310;48.106;12.008;2023-03-01T14:03:19;15.10;72.60
58519;DHT22;44310;48.106;12.008;2023-03-01T14:06:13;15.00;72.50
58519;DHT22;44310;48.106;12.008;2023-03-01T14:08:49;15.00;72.50
58519;DHT22;44310;48.106;12.008;2023-03-01T14:11:31;15.00;72.50
58519;DHT22;44310;48.106;12.008;2023-03-01T14:17:17;15.00;72.40
58519;DHT22;44310;48.106;12.008;2023-03-01T14:19:56;15.00;72.20
58519;DHT22;44310;48.106;12.008;2023-03-01T14:22:26;15.00;72.30
58519;DHT22;44310;48.106;12.008;2023-03-01T14:25:24;15.20;72.40
58519;DHT22;44310;48.106;12.008;2023-03-01T14:30:44;15.00;72.20
58519;DHT22;44310;48.106;12.008;2023-03-01T14:33:29;15.70;72.50
58519;DHT22;44310;48.106;12.008;2023-03-01T14:36:08;15.00;72.00
58519;DHT22;44310;48.106;12.008;2023-03-01T14:38:47;15.00;71.90
58519;DHT22;44310;48.106;12.008;2023-03-01T14:41:19;15.10;72.10
58519;DHT22;44310;48.106;12.008;2023-03-01T14:43:50;15.10;72.10
58519;DHT22;44310;48.106;12.008;2023-03-01T14:46:35;15.10;72.10
58519;DHT22;44310;48.106;12.008;2023-03-01T14:51:41;15.20;72.30
58519;DHT22;44310;48.106;12.008;2023-03-01T14:54:25;15.20;72.00
58519;DHT22;44310;48.106;12.008;2023-03-01T14:56:57;15.10;71.70
58519;DHT22;44310;48.106;12.008;2023-03-01T14:59:25;15.20;72.50
58519;DHT22;44310;48.106;12.008;2023-03-01T15:01:55;15.10;71.90
58519;DHT22;44310;48.106;12.008;2023-03-01T15:04:24;15.00;72.30
58519;DHT22;44310;48.106;12.008;2023-03-01T15:06:54;15.40;72.50
58519;DHT22;44310;48.106;12.008;2023-03-01T15:09:22;15.20;72.60
58519;DHT22;44310;48.106;12.008;2023-03-01T15:11:49;15.80;73.00
58519;DHT22;44310;48.106;12.008;2023-03-01T15:14:28;15.20;72.60
58519;DHT22;44310;48.106;12.008;2023-03-01T15:16:56;15.20;72.70
58519;DHT22;44310;48.106;12.008;2023-03-01T15:19:24;15.20;73.20
58519;DHT22;44310;48.106;12.008;2023-03-01T15:21:55;15.20;73.10
58519;DHT22;44310;48.106;12.008;2023-03-01T15:24:24;15.20;73.10
58519;DHT22;44310;48.106;12.008;2023-03-01T15:26:58;14.80;72.90
58519;DHT22;44310;48.106;12.008;2023-03-01T15:29:29;15.20;73.40
58519;DHT22;44310;48.106;12.008;2023-03-01T15:32:20;15.20;73.40
58519;DHT22;44310;48.106;12.008;2023-03-01T15:34:50;15.20;73.60
58519;DHT22;44310;48.106;12.008;2023-03-01T15:37:43;15.20;73.60
58519;DHT22;44310;48.106;12.008;2023-03-01T15:40:29;15.20;73.70
58519;DHT22;44310;48.106;12.008;2023-03-01T15:43:36;15.20;73.80
58519;DHT22;44310;48.106;12.008;2023-03-01T15:46:00;15.20;74.10
58519;DHT22;44310;48.106;12.008;2023-03-01T15:48:28;14.80;73.80
58519;DHT22;44310;48.106;12.008;2023-03-01T15:50:56;15.20;74.10
58519;DHT22;44310;48.106;12.008;2023-03-01T15:53:27;15.20;74.10
58519;DHT22;44310;48.106;12.008;2023-03-01T15:55:55;15.20;74.20
58519;DHT22;44310;48.106;12.008;2023-03-01T15:58:25;15.20;74.10
58519;DHT22;44310;48.106;12.008;2023-03-01T16:00:53;14.70;74.10
58519;DHT22;44310;48.106;12.008;2023-03-01T16:03:28;15.20;74.40
58519;DHT22;44310;48.106;12.008;2023-03-01T16:05:55;15.10;75.10
58519;DHT22;44310;48.106;12.008;2023-03-01T16:08:22;15.10;74.60
58519;DHT22;44310;48.106;12.008;2023-03-01T16:10:50;15.10;74.40
58519;DHT22;44310;48.106;12.008;2023-03-01T16:13:18;15.20;74.50
58519;DHT22;44310;48.106;12.008;2023-03-01T16:15:46;15.20;75.00
58519;DHT22;44310;48.106;12.008;2023-03-01T16:18:14;15.70;75.40
58519;DHT22;44310;48.106;12.008;2023-03-01T16:20:41;15.10;75.50
58519;DHT22;44310;48.106;12.008;2023-03-01T16:23:10;15.20;76.00
58519;DHT22;44310;48.106;12.008;2023-03-01T16:25:38;15.20;76.20
58519;DHT22;44310;48.106;12.008;2023-03-01T16:28:05;15.30;76.50
58519;DHT22;44310;48.106;12.008;2023-03-01T16:30:37;15.20;76.70
58519;DHT22;44310;48.106;12.008;2023-03-01T16:33:04;15.00;76.90
58519;DHT22;44310;48.106;12.008;2023-03-01T16:35:50;15.40;76.90
58519;DHT22;44310;48.106;12.008;2023-03-01T16:38:18;16.00;77.70
58519;DHT22;44310;48.106;12.008;2023-03-01T16:40:48;15.30;77.60
58519;DHT22;44310;48.106;12.008;2023-03-01T16:43:15;15.30;77.80
58519;DHT22;44310;48.106;12.008;2023-03-01T16:45:42;15.30;77.90
58519;DHT22;44310;48.106;12.008;2023-03-01T16:48:12;15.30;77.90
58519;DHT22;44310;48.106;12.008;2023-03-01T16:50:39;15.30;77.80
58519;DHT22;44310;48.106;12.008;2023-03-01T16:53:06;15.30;77.70
58519;DHT22;44310;48.106;12.008;2023-03-01T16:55:34;15.30;77.40
58519;DHT22;44310;48.106;12.008;2023-03-01T16:58:01;15.20;77.30
58519;DHT22;44310;48.106;12.008;2023-03-01T17:00:29;15.20;77.10
58519;DHT22;44310;48.106;12.008;2023-03-01T17:02:56;15.20;76.90
58519;DHT22;44310;48.106;12.008;2023-03-01T17:05:23;15.20;76.70
58519;DHT22;44310;48.106;12.008;2023-03-01T17:07:51;15.20;76.20
58519;DHT22;44310;48.106;12.008;2023-03-01T17:10:21;15.10;76.00
58519;DHT22;44310;48.106;12.008;2023-03-01T17:12:49;15.10;76.60
58519;DHT22;44310;48.106;12.008;2023-03-01T17:15:17;15.10;76.70
58519;DHT22;44310;48.106;12.008;2023-03-01T17:17:44;15.10;76.50
58519;DHT22;44310;48.106;12.008;2023-03-01T17:20:11;15.10;76.30
58519;DHT22;44310;48.106;12.008;2023-03-01T17:22:38;15.10;76.00
58519;DHT22;44310;48.106;12.008;2023-03-01T17:25:08;15.10;76.60
58519;DHT22;44310;48.106;12.008;2023-03-01T17:27:37;15.10;76.90